Time;durP1;ratioP1;P1;durP2;ratioP2;P2;SDS_P1;SDS_P2;PMS_P1;PMS_P2;Temp;Humidity;BMP_temperature;BMP_pressure;BME280_temperature;BME280_humidity;BME280_pressure;Samples;Min_cycle;Max_cycle;Signal;HPM_P1;HPM_P2
2023/04/29 00:02:15;;;;;;;;;32.50;30.00;;;;;10.54;77.65;101491.75;5020781;28;11953;-66
2023/04/29 00:04:41;;;;;;;;;40.00;31.25;;;;;10.50;77.72;101491.25;5022498;28;11446;-66
2023/04/29 00:07:08;;;;;;;;;30.00;26.50;;;;;10.55;77.62;101502.31;5006585;28;12683;-66
2023/04/29 00:09:36;;;;;;;;;35.75;28.75;;;;;10.56;77.32;101500.47;5012402;28;11100;-66
2023/04/29 00:12:02;;;;;;;;;33.00;25.75;;;;;10.54;77.25;101505.22;5007238;28;11153;-66
2023/04/29 00:14:29;;;;;;;;;35.50;27.50;;;;;10.46;77.16;101503.41;5019882;28;11147;-67
2023/04/29 00:16:58;;;;;;;;;29.00;23.25;;;;;10.39;77.04;101505.13;5023883;28;11466;-67
2023/04/29 00:19:25;;;;;;;;;29.50;27.25;;;;;10.37;77.46;101508.00;5017613;28;10994;-67
2023/04/29 00:21:53;;;;;;;;;29.25;25.00;;;;;10.38;77.46;101509.66;5000555;28;11222;-65
2023/04/29 00:24:20;;;;;;;;;22.00;20.75;;;;;10.43;77.23;101511.00;5022314;28;11315;-65
2023/04/29 00:26:46;;;;;;;;;31.50;30.00;;;;;10.41;77.50;101505.75;5015294;28;10999;-66
2023/04/29 00:29:12;;;;;;;;;26.00;21.00;;;;;10.39;77.39;101511.34;5002459;28;11467;-66
2023/04/29 00:31:39;;;;;;;;;27.00;25.50;;;;;10.37;76.86;101521.44;5018847;28;11615;-67
2023/04/29 00:34:05;;;;;;;;;28.75;26.25;;;;;10.37;76.87;101521.44;4994389;28;11122;-67
2023/04/29 00:36:32;;;;;;;;;26.25;22.50;;;;;10.40;77.54;101531.84;5012398;28;11308;-67
2023/04/29 00:38:58;;;;;;;;;30.00;25.00;;;;;10.41;77.16;101535.38;5010561;28;11104;-67
2023/04/29 00:41:25;;;;;;;;;23.00;21.25;;;;;10.36;77.05;101527.81;5002068;28;11254;-67
2023/04/29 00:43:52;;;;;;;;;39.00;30.75;;;;;10.34;76.73;101527.19;5020755;28;11152;-67
2023/04/29 00:46:18;;;;;;;;;33.50;31.00;;;;;10.29;77.24;101532.25;4994811;28;11909;-67
2023/04/29 00:48:45;;;;;;;;;28.50;25.00;;;;;10.28;76.85;101529.72;5010539;28;13633;-67
2023/04/29 00:51:12;;;;;;;;;27.50;24.00;;;;;10.24;77.38;101529.19;4997837;28;11083;-68
2023/04/29 00:53:39;;;;;;;;;18.00;16.50;;;;;10.34;77.30;101531.72;4993400;28;10944;-67
2023/04/29 00:56:07;;;;;;;;;23.00;23.00;;;;;10.42;77.21;101538.94;5019908;28;10925;-67
2023/04/29 00:58:37;;;;;;;;;27.50;20.50;;;;;10.47;76.64;101547.31;5022656;28;11075;-67
2023/04/29 01:01:05;;;;;;;;;16.75;15.00;;;;;10.55;76.83;101541.88;4988823;28;11701;-67
2023/04/29 01:03:32;;;;;;;;;25.25;20.50;;;;;10.59;76.33;101546.72;5006729;28;10873;-67
2023/04/29 01:06:23;;;;;;;;;21.75;18.25;;;;;10.57;75.61;101539.81;4990742;28;11756;-66
2023/04/29 01:09:21;;;;;;;;;26.00;23.75;;;;;10.49;75.94;101543.44;5012657;28;10967;-66
2023/04/29 01:12:22;;;;;;;;;21.50;19.50;;;;;10.40;75.55;101548.00;4991277;28;11666;-66
2023/04/29 01:15:09;;;;;;;;;23.75;19.25;;;;;10.39;76.46;101551.72;4990302;28;10913;-67
2023/04/29 01:17:50;;;;;;;;;25.25;18.75;;;;;10.42;76.35;101557.75;5016630;28;10969;-67
2023/04/29 01:20:18;;;;;;;;;21.50;19.50;;;;;10.47;76.34;101560.75;4989190;28;10954;-66
2023/04/29 01:22:44;;;;;;;;;21.00;20.00;;;;;10.50;76.16;101555.88;4993569;28;10880;-67
2023/04/29 01:25:11;;;;;;;;;23.00;20.25;;;;;10.50;76.16;101563.09;4987637;28;11013;-67
2023/04/29 01:28:25;;;;;;;;;21.50;21.50;;;;;10.55;76.83;101566.09;5013402;28;11078;-67
2023/04/29 01:31:19;;;;;;;;;37.75;32.75;;;;;10.47;76.07;101563.44;4995377;28;10973;-67
2023/04/29 01:34:11;;;;;;;;;30.00;25.25;;;;;10.44;76.36;101569.19;4989633;28;11296;-67
2023/04/29 01:37:05;;;;;;;;;25.75;24.50;;;;;10.42;76.60;101577.44;4995944;28;11438;-67
2023/04/29 01:39:56;;;;;;;;;21.25;19.00;;;;;10.39;76.61;101577.78;5015922;28;11058;-67
2023/04/29 01:42:38;;;;;;;;;32.00;30.00;;;;;10.34;76.35;101583.69;5005909;28;10995;-67
2023/04/29 01:45:15;;;;;;;;;23.75;21.25;;;;;10.34;76.76;101583.69;5007802;28;11364;-67
2023/04/29 01:47:42;;;;;;;;;27.50;23.00;;;;;10.34;77.00;101583.69;4996161;28;11042;-67
2023/04/29 01:50:10;;;;;;;;;19.00;17.50;;;;;10.39;77.09;101583.16;4997563;28;10935;-67
2023/04/29 01:52:37;;;;;;;;;29.50;27.50;;;;;10.43;77.45;101586.34;5021301;28;11052;-67
2023/04/29 01:55:04;;;;;;;;;17.25;16.50;;;;;10.43;77.20;101589.03;4993721;28;11041;-67
2023/04/29 01:57:40;;;;;;;;;26.25;20.75;;;;;10.43;77.22;101584.50;5000570;28;10956;-67
2023/04/29 02:00:36;;;;;;;;;27.50;24.75;;;;;10.43;76.54;101586.34;5015307;28;11153;-67
2023/04/29 02:03:04;;;;;;;;;24.50;22.00;;;;;10.38;76.63;101587.72;5008508;28;11213;-67
2023/04/29 02:05:36;;;;;;;;;26.75;24.50;;;;;10.33;76.79;101592.78;4994854;28;11090;-67
2023/04/29 02:08:03;;;;;;;;;32.50;26.25;;;;;10.21;76.70;101588.78;5008122;28;10944;-68
2023/04/29 02:10:32;;;;;;;;;23.00;21.25;;;;;10.24;77.51;101595.63;4988481;28;11266;-69
2023/04/29 02:13:12;;;;;;;;;27.50;26.75;;;;;10.30;76.92;101592.28;4998558;28;11843;-68
2023/04/29 02:15:39;;;;;;;;;32.00;26.75;;;;;10.28;77.02;101603.22;5003821;28;11124;-67
2023/04/29 02:18:06;;;;;;;;;31.50;29.50;;;;;10.30;77.28;101600.38;4987852;28;11230;-68
2023/04/29 02:20:33;;;;;;;;;27.50;25.50;;;;;10.30;76.90;101594.97;5011474;28;11548;-68
2023/04/29 02:23:03;;;;;;;;;34.75;27.75;;;;;10.34;77.22;101607.91;5016069;28;11117;-67
2023/04/29 02:25:30;;;;;;;;;30.00;27.75;;;;;10.29;76.63;101607.59;4995807;28;11106;-68
2023/04/29 02:27:57;;;;;;;;;29.75;27.75;;;;;10.28;77.06;101611.28;5014906;28;11529;-67
2023/04/29 02:30:24;;;;;;;;;33.50;30.50;;;;;10.27;76.52;101614.16;5001548;28;11246;-66
2023/04/29 02:32:51;;;;;;;;;26.50;22.75;;;;;10.24;76.83;101611.78;4993453;28;11568;-66
2023/04/29 02:35:18;;;;;;;;;24.75;21.25;;;;;10.27;76.71;101612.31;4982398;28;11105;-69
2023/04/29 02:37:46;;;;;;;;;30.50;27.50;;;;;10.25;75.96;101633.19;5012965;28;10992;-66
2023/04/29 02:40:12;;;;;;;;;23.00;22.75;;;;;10.25;76.75;101619.72;5003443;28;11110;-67
2023/04/29 02:42:39;;;;;;;;;33.25;27.50;;;;;10.25;76.34;101629.63;5002710;28;11089;-66
2023/04/29 02:45:06;;;;;;;;;27.00;24.25;;;;;10.26;76.31;101623.25;4997084;28;11569;-66
2023/04/29 02:47:32;;;;;;;;;23.00;21.25;;;;;10.28;76.70;101634.66;5004906;28;11150;-66
2023/04/29 02:49:59;;;;;;;;;34.75;26.25;;;;;10.29;76.07;101629.13;5008467;28;11022;-67
2023/04/29 02:52:26;;;;;;;;;23.50;21.75;;;;;10.32;76.10;101631.44;4976530;28;11300;-66
2023/04/29 02:54:52;;;;;;;;;24.50;22.00;;;;;10.35;76.11;101633.81;5006447;28;11195;-67
2023/04/29 02:57:19;;;;;;;;;29.50;22.75;;;;;10.34;76.05;101642.06;5019583;28;11202;-67
2023/04/29 02:59:46;;;;;;;;;28.75;26.00;;;;;10.37;76.08;101637.19;4989000;28;11078;-67
2023/04/29 03:02:12;;;;;;;;;26.25;21.25;;;;;10.39;75.66;101645.91;5015855;28;11186;-66
2023/04/29 03:04:39;;;;;;;;;34.25;33.00;;;;;10.30;75.82;101643.41;5004750;28;11131;-67
2023/04/29 03:07:06;;;;;;;;;31.25;27.25;;;;;10.23;75.41;101642.41;5002547;28;12230;-67
2023/04/29 03:09:33;;;;;;;;;36.25;29.00;;;;;10.24;75.97;101650.28;4985773;28;11285;-66
2023/04/29 03:12:01;;;;;;;;;25.75;25.75;;;;;10.28;76.45;101648.97;5017560;28;11280;-67
2023/04/29 03:14:29;;;;;;;;;31.25;25.25;;;;;10.30;75.94;101649.63;4978533;28;11065;-67
2023/04/29 03:16:56;;;;;;;;;27.50;25.00;;;;;10.22;75.92;101652.31;4986901;28;11230;-67
2023/04/29 03:19:23;;;;;;;;;24.75;24.75;;;;;10.16;76.84;101659.22;4998160;28;11302;-67
2023/04/29 03:21:49;;;;;;;;;30.75;30.50;;;;;10.19;76.89;101654.50;5013884;28;11221;-67
2023/04/29 03:24:19;;;;;;;;;23.00;23.00;;;;;10.19;76.72;101660.72;5013377;28;11215;-67
2023/04/29 03:26:46;;;;;;;;;33.50;26.50;;;;;10.20;76.98;101661.56;4992625;28;11097;-67
2023/04/29 03:29:12;;;;;;;;;25.50;23.50;;;;;10.22;77.14;101668.47;5010083;28;11208;-67
2023/04/29 03:31:39;;;;;;;;;36.50;30.00;;;;;10.17;77.31;101670.84;5013480;28;11272;-67
2023/04/29 03:34:06;;;;;;;;;30.25;30.00;;;;;10.20;77.63;101677.72;5017586;28;11578;-67
2023/04/29 03:36:36;;;;;;;;;26.50;22.75;;;;;10.21;77.41;101672.19;4996615;28;11227;-67
2023/04/29 03:39:06;;;;;;;;;37.25;29.00;;;;;10.22;77.37;101673.84;5027222;28;11737;-67
2023/04/29 03:41:32;;;;;;;;;30.50;25.00;;;;;10.22;77.64;101675.69;5008512;28;11253;-67
2023/04/29 03:43:59;;;;;;;;;30.50;26.25;;;;;10.22;77.83;101681.91;5009818;28;11317;-67
2023/04/29 03:46:27;;;;;;;;;25.25;24.50;;;;;10.24;77.58;101677.19;5009406;28;11036;-67
2023/04/29 03:48:56;;;;;;;;;26.50;23.25;;;;;10.25;78.01;101683.44;5019614;28;11096;-67
2023/04/29 03:51:24;;;;;;;;;36.00;29.75;;;;;10.19;77.79;101682.25;5029369;28;11091;-67
2023/04/29 03:53:56;;;;;;;;;26.75;25.75;;;;;10.12;77.78;101681.25;5001568;28;11135;-67
2023/04/29 03:56:27;;;;;;;;;33.25;22.25;;;;;10.10;78.11;101692.19;5009756;28;12044;-67
2023/04/29 03:58:53;;;;;;;;;34.00;30.75;;;;;10.12;78.24;101697.41;4994956;28;11253;-67
2023/04/29 04:01:22;;;;;;;;;28.25;24.75;;;;;10.11;78.49;101688.47;5011931;28;11562;-67
2023/04/29 04:03:48;;;;;;;;;31.00;29.75;;;;;10.15;78.65;101705.13;5008925;28;11641;-67
2023/04/29 04:06:15;;;;;;;;;30.75;26.75;;;;;10.10;78.18;101700.25;4994928;28;11158;-67
2023/04/29 04:08:42;;;;;;;;;34.25;29.00;;;;;10.08;78.30;101704.13;5016740;28;11179;-67
2023/04/29 04:11:14;;;;;;;;;27.75;26.50;;;;;10.08;78.57;101714.88;5007015;28;12214;-67
2023/04/29 04:13:44;;;;;;;;;33.00;29.75;;;;;10.05;78.48;101713.41;4982394;28;11483;-67
2023/04/29 04:16:11;;;;;;;;;31.50;25.50;;;;;10.04;78.81;101716.22;4996327;28;11490;-67
2023/04/29 04:18:38;;;;;;;;;22.25;22.25;;;;;10.06;78.76;101716.91;4998687;28;11200;-67
2023/04/29 04:21:10;;;;;;;;;26.75;24.00;;;;;10.06;79.23;101717.75;5012587;28;11281;-67
2023/04/29 04:23:40;;;;;;;;;27.00;21.50;;;;;10.07;79.23;101714.03;5002552;28;11199;-67
2023/04/29 04:26:08;;;;;;;;;26.00;22.50;;;;;10.09;78.92;101711.22;4996827;28;11054;-67
2023/04/29 04:28:53;;;;;;;;;26.50;26.00;;;;;10.06;79.09;101711.53;5008972;28;11224;-66
2023/04/29 04:31:46;;;;;;;;;27.75;25.25;;;;;10.08;78.90;101717.56;5029011;28;11426;-66
2023/04/29 04:34:14;;;;;;;;;23.50;20.25;;;;;10.13;78.56;101724.16;5018056;28;11177;-66
2023/04/29 04:36:41;;;;;;;;;26.25;21.75;;;;;10.14;78.52;101722.28;5012457;28;11113;-67
2023/04/29 04:39:11;;;;;;;;;29.00;27.50;;;;;10.13;78.56;101734.06;5019037;28;11229;-66
2023/04/29 04:41:38;;;;;;;;;23.50;20.50;;;;;10.10;78.75;101734.41;5003239;28;11196;-67
2023/04/29 04:44:04;;;;;;;;;34.25;30.00;;;;;10.06;78.65;101739.28;5017105;28;12200;-66
2023/04/29 04:46:41;;;;;;;;;38.75;29.25;;;;;10.07;79.08;101740.94;5003951;28;11308;-67
2023/04/29 04:49:13;;;;;;;;;38.50;31.00;;;;;10.04;78.66;101743.13;5002767;28;11217;-67
2023/04/29 04:51:47;;;;;;;;;22.00;21.75;;;;;10.08;79.25;101757.94;5030624;28;11570;-67
2023/04/29 04:54:13;;;;;;;;;33.25;26.75;;;;;10.05;78.65;101756.44;5027217;28;11165;-67
2023/04/29 04:56:40;;;;;;;;;30.25;25.50;;;;;10.04;78.49;101765.50;4994464;28;11096;-67
2023/04/29 04:59:07;;;;;;;;;22.75;19.25;;;;;10.09;79.28;101759.63;5010699;28;11272;-67
2023/04/29 05:01:35;;;;;;;;;19.75;18.00;;;;;10.13;78.94;101767.19;4994193;28;11017;-67
2023/04/29 05:04:02;;;;;;;;;31.00;24.00;;;;;10.12;78.24;101770.88;4994342;28;11250;-67
2023/04/29 05:06:29;;;;;;;;;22.00;21.75;;;;;10.08;78.35;101758.75;5025452;28;11261;-67
2023/04/29 05:08:56;;;;;;;;;26.50;25.25;;;;;10.08;78.17;101774.06;5004188;28;11185;-67
2023/04/29 05:11:23;;;;;;;;;26.75;24.00;;;;;10.04;78.43;101773.56;5015995;28;11270;-67
2023/04/29 05:14:08;;;;;;;;;27.25;27.25;;;;;10.00;78.38;101777.59;5013884;28;11436;-67
2023/04/29 05:16:34;;;;;;;;;28.75;25.00;;;;;10.01;78.51;101789.22;5008470;28;11461;-68
2023/04/29 05:19:01;;;;;;;;;20.25;17.75;;;;;10.06;78.55;101787.69;5006255;28;11431;-67
2023/04/29 05:21:31;;;;;;;;;28.50;26.75;;;;;10.09;78.44;101783.84;4982943;28;11439;-67
2023/04/29 05:23:58;;;;;;;;;21.00;21.00;;;;;10.09;78.12;101794.59;4993989;28;11261;-67
2023/04/29 05:26:25;;;;;;;;;18.75;18.75;;;;;10.11;78.63;101790.72;4975291;28;11257;-66
2023/04/29 05:28:55;;;;;;;;;24.25;23.00;;;;;10.16;78.64;101803.66;4975042;28;11204;-67
2023/04/29 05:31:23;;;;;;;;;23.00;21.75;;;;;10.15;77.98;101801.97;4976768;28;11210;-67
2023/04/29 05:33:49;;;;;;;;;27.50;25.00;;;;;10.16;78.20;101798.28;5003490;28;11949;-67
2023/04/29 05:36:16;;;;;;;;;28.75;27.00;;;;;10.22;78.43;101794.94;5005981;28;11253;-67
2023/04/29 05:38:44;;;;;;;;;21.75;20.75;;;;;10.30;77.84;101803.03;5022312;28;11213;-67
2023/04/29 05:41:10;;;;;;;;;19.00;19.00;;;;;10.33;77.58;101799.16;5016402;28;11145;-67
2023/04/29 05:44:00;;;;;;;;;24.00;24.00;;;;;10.24;77.37;101806.34;5007157;28;11066;-68
2023/04/29 05:46:26;;;;;;;;;19.00;18.00;;;;;10.27;77.51;101807.91;5017702;28;11009;-67
2023/04/29 05:48:53;;;;;;;;;31.25;21.25;;;;;10.29;77.45;101814.81;5000440;22;10848;-68
2023/04/29 05:51:21;;;;;;;;;27.75;24.00;;;;;10.18;77.30;101812.41;4998508;28;11108;-71
2023/04/29 05:53:48;;;;;;;;;29.00;24.75;;;;;10.20;77.80;101818.47;5003231;28;11180;-68
2023/04/29 05:56:15;;;;;;;;;21.00;18.50;;;;;10.23;77.95;101825.38;5013009;28;11128;-71
2023/04/29 05:58:42;;;;;;;;;23.75;22.00;;;;;10.25;78.06;101824.22;5003657;28;10973;-69
2023/04/29 06:01:08;;;;;;;;;25.00;19.00;;;;;10.44;77.81;101827.56;5019813;28;10968;-71
2023/04/29 06:03:35;;;;;;;;;21.25;18.00;;;;;10.53;76.93;101832.81;5010405;28;11012;-68
2023/04/29 06:06:20;;;;;;;;;24.50;20.50;;;;;10.71;76.12;101831.75;5010209;28;10831;-71
2023/04/29 06:09:05;;;;;;;;;27.00;20.50;;;;;10.83;75.63;101833.94;5013302;28;10894;-70
2023/04/29 06:11:46;;;;;;;;;21.25;19.50;;;;;11.03;75.39;101838.94;4995427;28;10862;-71
2023/04/29 06:14:12;;;;;;;;;19.25;19.25;;;;;11.21;73.91;101836.00;5015739;28;11582;-72
2023/04/29 06:16:39;;;;;;;;;18.75;17.25;;;;;11.45;74.23;101841.28;5015716;28;10540;-70
2023/04/29 06:19:07;;;;;;;;;28.00;22.00;;;;;11.53;72.81;101838.56;5015560;28;11300;-70
2023/04/29 06:21:34;;;;;;;;;22.25;21.75;;;;;11.67;71.13;101847.78;4980532;28;10470;-71
2023/04/29 06:24:00;;;;;;;;;19.25;18.75;;;;;11.75;71.17;101861.22;4991272;28;10615;-71
2023/04/29 06:26:27;;;;;;;;;17.25;16.50;;;;;11.63;70.89;101846.44;5003634;28;10537;-71
2023/04/29 06:28:53;;;;;;;;;20.50;19.25;;;;;11.80;70.53;101861.53;4993617;28;10521;-70
2023/04/29 06:31:20;;;;;;;;;23.00;19.75;;;;;11.80;70.62;101860.69;4976312;28;10397;-71
2023/04/29 06:33:50;;;;;;;;;24.25;21.75;;;;;11.79;70.05;101867.94;4989639;28;10554;-71
2023/04/29 06:36:16;;;;;;;;;22.00;20.00;;;;;11.80;70.05;101872.31;4995219;28;10720;-70
2023/04/29 06:39:08;;;;;;;;;20.50;19.00;;;;;11.92;69.87;101880.03;5004230;28;10394;-71
2023/04/29 06:41:35;;;;;;;;;31.50;23.50;;;;;11.99;69.24;101881.00;5028361;28;10604;-71
2023/04/29 06:44:21;;;;;;;;;21.75;21.25;;;;;12.01;68.97;101877.09;5007703;28;11196;-71
2023/04/29 06:47:10;;;;;;;;;18.75;17.25;;;;;12.06;68.83;101882.78;4954109;28;11315;-70
2023/04/29 06:50:06;;;;;;;;;18.50;17.00;;;;;12.08;68.72;101883.47;4984028;28;10510;-71
2023/04/29 06:52:33;;;;;;;;;22.75;21.75;;;;;12.03;68.19;101888.56;5005158;28;10320;-71
2023/04/29 06:54:59;;;;;;;;;31.00;21.25;;;;;12.03;68.13;101895.81;5015744;28;10553;-71
2023/04/29 06:57:26;;;;;;;;;23.50;21.00;;;;;11.97;68.30;101899.22;5011054;28;11244;-69
2023/04/29 06:59:52;;;;;;;;;16.25;14.50;;;;;12.02;68.70;101900.38;4999821;28;11242;-71
2023/04/29 07:02:19;;;;;;;;;18.75;16.75;;;;;12.06;67.94;101911.66;4986924;28;10439;-71
2023/04/29 07:04:47;;;;;;;;;14.50;13.50;;;;;12.10;68.33;101910.28;5003938;28;10406;-71
2023/04/29 07:07:14;;;;;;;;;14.75;12.00;;;;;12.12;68.49;101909.09;4992795;28;10390;-68
2023/04/29 07:09:41;;;;;;;;;16.00;16.00;;;;;12.22;68.35;101925.03;5007326;28;10272;-70
2023/04/29 07:12:07;;;;;;;;;22.75;16.50;;;;;12.21;67.42;101922.53;4991633;28;10253;-70
2023/04/29 07:14:36;;;;;;;;;18.00;17.75;;;;;12.17;67.47;101919.34;5017177;28;10383;-71
2023/04/29 07:17:02;;;;;;;;;23.25;18.50;;;;;12.20;67.06;101927.09;5022171;28;10535;-70
2023/04/29 07:19:30;;;;;;;;;13.25;12.25;;;;;12.21;66.81;101927.94;5009548;28;10701;-71
2023/04/29 07:21:56;;;;;;;;;18.00;16.00;;;;;12.15;66.30;101923.22;5005161;28;10324;-70
2023/04/29 07:24:23;;;;;;;;;18.50;16.00;;;;;12.23;66.05;101932.13;4987730;28;10222;-70
2023/04/29 07:26:49;;;;;;;;;13.00;13.00;;;;;12.31;66.20;101931.22;5015298;28;10371;-70
2023/04/29 07:29:16;;;;;;;;;15.75;13.75;;;;;12.44;66.58;101944.16;4996882;28;10399;-71
2023/04/29 07:31:43;;;;;;;;;17.25;17.00;;;;;12.45;65.80;101949.38;4997776;28;11520;-71
2023/04/29 07:34:09;;;;;;;;;15.00;13.50;;;;;12.51;65.02;101948.63;5001723;28;10445;-68
2023/04/29 07:36:37;;;;;;;;;19.25;16.00;;;;;12.55;64.70;101944.56;5009659;28;10236;-71
2023/04/29 07:39:03;;;;;;;;;22.25;15.00;;;;;12.52;64.17;101946.81;5002919;28;10415;-70
2023/04/29 07:41:30;;;;;;;;;19.50;18.25;;;;;12.51;64.85;101947.78;4998521;28;10179;-66
2023/04/29 07:43:57;;;;;;;;;15.25;14.75;;;;;12.59;64.51;101947.75;4999403;28;10269;-70
2023/04/29 07:46:24;;;;;;;;;14.25;12.50;;;;;12.69;64.35;101951.06;4984249;28;10248;-70
2023/04/29 07:48:51;;;;;;;;;12.00;10.50;;;;;12.78;64.26;101958.06;4996317;28;10096;-71
2023/04/29 07:51:18;;;;;;;;;19.75;17.75;;;;;12.77;64.04;101959.09;5010140;28;10313;-71
2023/04/29 07:53:44;;;;;;;;;16.00;13.25;;;;;12.81;63.23;101960.41;5009109;28;10195;-71
2023/04/29 07:56:11;;;;;;;;;18.75;17.00;;;;;12.84;63.40;101970.00;5002496;28;10272;-70
2023/04/29 07:58:38;;;;;;;;;16.25;14.25;;;;;12.92;63.04;101971.78;4993366;28;10091;-70
2023/04/29 08:01:09;;;;;;;;;14.75;12.25;;;;;13.05;63.16;101972.88;5012099;28;10046;-71
2023/04/29 08:03:36;;;;;;;;;10.25;9.50;;;;;13.15;62.50;101971.75;5012083;28;10045;-68
2023/04/29 08:06:07;;;;;;;;;14.25;10.00;;;;;13.17;62.63;101975.13;5006425;28;10780;-71
2023/04/29 08:08:34;;;;;;;;;9.25;9.25;;;;;13.25;62.64;101975.94;4991353;28;9861;-71
2023/04/29 08:11:00;;;;;;;;;14.75;12.25;;;;;13.30;62.66;101976.22;5012052;28;9911;-71
2023/04/29 08:13:27;;;;;;;;;16.00;16.00;;;;;13.33;62.20;101975.84;5017520;28;9869;-71
2023/04/29 08:15:54;;;;;;;;;18.75;16.50;;;;;13.33;61.69;101983.97;5019851;28;10103;-72
2023/04/29 08:18:20;;;;;;;;;12.00;9.50;;;;;13.41;61.38;101983.03;5010754;28;10029;-71
2023/04/29 08:20:48;;;;;;;;;20.00;14.50;;;;;13.48;61.21;101985.81;5016573;28;9908;-71
2023/04/29 08:23:14;;;;;;;;;17.00;14.75;;;;;13.46;60.58;101986.03;5016947;28;9869;-70
2023/04/29 08:25:42;;;;;;;;;15.75;14.25;;;;;13.46;60.41;101980.59;5014216;28;10021;-71
2023/04/29 08:28:09;;;;;;;;;12.50;12.00;;;;;13.59;60.63;101990.78;5022252;28;9865;-71
2023/04/29 08:30:40;;;;;;;;;11.00;9.50;;;;;13.73;60.83;101994.50;5023060;28;10020;-69
2023/04/29 08:33:07;;;;;;;;;10.50;9.25;;;;;13.94;60.21;101996.47;5020962;28;9674;-69
2023/04/29 08:35:36;;;;;;;;;15.25;13.00;;;;;14.05;58.17;101999.50;5006338;28;9703;-71
2023/04/29 08:38:07;;;;;;;;;9.75;9.00;;;;;14.08;59.43;101995.59;5026686;28;9840;-71
2023/04/29 08:40:34;;;;;;;;;9.50;9.00;;;;;14.20;58.61;102002.22;5004653;28;9954;-71
2023/04/29 08:43:02;;;;;;;;;11.75;9.75;;;;;14.23;57.47;102006.41;5020660;28;9833;-69
2023/04/29 08:45:31;;;;;;;;;12.00;12.00;;;;;14.16;57.25;102003.63;5016952;28;10388;-70
2023/04/29 08:47:58;;;;;;;;;8.00;7.50;;;;;14.19;57.34;102008.66;5015462;28;9765;-70
2023/04/29 08:50:26;;;;;;;;;12.00;11.50;;;;;14.28;57.23;102010.22;5004807;28;9582;-72
2023/04/29 08:52:54;;;;;;;;;15.75;14.00;;;;;14.37;57.47;101999.28;5017093;28;9678;-70
2023/04/29 08:55:20;;;;;;;;;17.00;14.25;;;;;14.49;56.31;102019.44;5017650;28;10563;-72
2023/04/29 08:57:49;;;;;;;;;10.75;8.00;;;;;14.43;57.24;102023.75;5010800;28;9739;-70
2023/04/29 09:00:16;;;;;;;;;12.25;11.00;;;;;14.57;57.55;102022.03;5011478;28;9725;-71
2023/04/29 09:02:48;;;;;;;;;12.50;11.25;;;;;14.77;57.86;102023.09;5008917;28;9758;-71
2023/04/29 09:05:15;;;;;;;;;12.00;10.00;;;;;14.93;56.74;102019.28;4985368;28;9755;-71
2023/04/29 09:07:43;;;;;;;;;12.00;11.00;;;;;15.09;55.03;102032.56;5011910;28;9599;-69
2023/04/29 09:10:10;;;;;;;;;14.50;11.50;;;;;15.00;53.84;102032.91;5012448;28;9697;-71
2023/04/29 09:12:37;;;;;;;;;11.00;9.50;;;;;14.74;53.71;102031.59;5011430;28;9673;-71
2023/04/29 09:15:03;;;;;;;;;11.75;10.50;;;;;14.60;55.10;102043.34;4996874;28;9626;-71
2023/04/29 09:17:44;;;;;;;;;15.25;11.75;;;;;14.47;55.26;102041.28;5031716;28;9507;-69
2023/04/29 09:20:20;;;;;;;;;11.75;11.00;;;;;14.23;55.46;102039.75;5012926;28;9748;-69
2023/04/29 09:22:58;;;;;;;;;11.50;9.25;;;;;14.41;56.70;102033.06;5009352;28;9796;-70
2023/04/29 09:25:26;;;;;;;;;13.50;11.00;;;;;14.59;56.24;102037.09;5019071;28;9868;-70
2023/04/29 09:27:53;;;;;;;;;11.00;9.50;;;;;14.83;55.84;102033.19;5013901;28;9714;-67
2023/04/29 09:30:21;;;;;;;;;14.25;11.00;;;;;14.86;55.19;102031.94;5011577;28;9871;-71
2023/04/29 09:33:07;;;;;;;;;14.75;12.00;;;;;14.97;54.69;102036.84;5010656;28;9602;-71
2023/04/29 09:35:35;;;;;;;;;14.75;13.75;;;;;14.94;54.59;102031.81;5010010;28;9713;-71
2023/04/29 09:38:13;;;;;;;;;13.75;12.00;;;;;14.98;53.67;102049.34;5011363;28;9807;-71
2023/04/29 09:40:41;;;;;;;;;18.00;14.25;;;;;14.88;53.67;102050.72;5019651;28;9680;-67
2023/04/29 09:43:24;;;;;;;;;19.25;14.25;;;;;14.91;54.21;102051.19;5014676;28;10417;-68
2023/04/29 09:45:50;;;;;;;;;15.25;12.00;;;;;14.95;53.05;102043.47;4992855;28;9717;-68
2023/04/29 09:48:17;;;;;;;;;11.00;10.00;;;;;14.95;54.37;102047.06;4991737;28;9624;-70
2023/04/29 09:51:00;;;;;;;;;10.50;10.50;;;;;14.99;54.57;102053.78;5007227;28;9613;-67
2023/04/29 09:53:28;;;;;;;;;15.50;12.00;;;;;14.92;54.84;102050.16;5004423;28;9579;-69
2023/04/29 09:56:01;;;;;;;;;13.50;12.75;;;;;14.95;55.52;102051.63;5019827;28;9698;-68
2023/04/29 09:58:39;;;;;;;;;18.75;18.75;;;;;14.87;54.69;102046.31;5026178;28;9779;-68
2023/04/29 10:01:06;;;;;;;;;13.75;13.75;;;;;14.69;54.56;102058.44;5028563;28;9943;-67
2023/04/29 10:03:37;;;;;;;;;12.00;12.00;;;;;14.74;54.73;102061.41;5010622;28;9906;-67
2023/04/29 10:06:06;;;;;;;;;12.50;11.50;;;;;14.82;55.43;102061.28;5021199;28;9772;-67
2023/04/29 10:08:34;;;;;;;;;16.00;13.50;;;;;15.07;54.23;102059.06;4989262;28;9906;-68
2023/04/29 10:11:04;;;;;;;;;14.25;12.75;;;;;15.28;53.21;102060.91;5012531;28;9768;-67
2023/04/29 10:13:34;;;;;;;;;16.50;13.00;;;;;15.37;52.55;102060.78;5022211;28;10441;-67
2023/04/29 10:16:07;;;;;;;;;13.25;13.25;;;;;15.28;50.39;102066.34;4998300;28;9599;-67
2023/04/29 10:18:36;;;;;;;;;19.50;16.75;;;;;15.09;50.40;102067.00;5005719;28;9763;-68
2023/04/29 10:21:07;;;;;;;;;22.00;17.75;;;;;15.05;52.25;102060.28;5006275;28;9829;-68
2023/04/29 10:23:35;;;;;;;;;15.00;11.75;;;;;15.22;52.19;102061.69;5018070;28;10615;-68
2023/04/29 10:26:02;;;;;;;;;10.25;10.25;;;;;15.40;51.68;102055.81;5001260;28;9561;-69
2023/04/29 10:28:31;;;;;;;;;17.00;14.75;;;;;15.44;50.83;102067.09;5006681;28;9606;-68
2023/04/29 10:31:04;;;;;;;;;13.25;10.25;;;;;15.43;51.13;102063.53;5003844;28;9832;-69
2023/04/29 10:33:33;;;;;;;;;14.25;14.00;;;;;15.43;50.80;102065.41;5000706;28;9774;-68
2023/04/29 10:36:02;;;;;;;;;9.25;9.25;;;;;15.41;50.60;102065.59;5003708;28;9701;-66
2023/04/29 10:38:53;;;;;;;;;11.50;10.25;;;;;15.22;50.98;102061.69;5016357;28;9439;-69
2023/04/29 10:41:24;;;;;;;;;12.50;11.00;;;;;15.21;51.47;102067.31;5011844;28;9551;-66
2023/04/29 10:43:51;;;;;;;;;13.00;12.00;;;;;15.40;51.35;102063.09;5006317;28;9651;-67
2023/04/29 10:46:25;;;;;;;;;12.00;12.00;;;;;15.34;49.17;102065.53;5014531;28;9510;-67
2023/04/29 10:49:10;;;;;;;;;11.50;11.50;;;;;15.33;50.23;102063.03;4993210;28;9635;-69
2023/04/29 10:51:42;;;;;;;;;9.50;8.75;;;;;15.52;51.04;102066.97;4997275;28;9733;-69
2023/04/29 10:54:13;;;;;;;;;11.50;11.00;;;;;15.40;47.91;102072.06;5009255;28;9434;-69
2023/04/29 10:56:48;;;;;;;;;11.50;10.25;;;;;15.28;49.31;102073.66;5008793;28;10435;-68
2023/04/29 10:59:19;;;;;;;;;17.50;13.00;;;;;15.39;50.16;102064.13;5009778;28;10412;-67
2023/04/29 11:01:50;;;;;;;;;9.25;8.25;;;;;15.62;50.12;102061.19;5009900;28;9500;-67
2023/04/29 11:04:20;;;;;;;;;11.00;10.75;;;;;15.83;48.82;102067.41;5009784;28;9530;-67
2023/04/29 11:06:52;;;;;;;;;9.50;9.50;;;;;15.82;47.60;102060.28;5005516;28;9575;-69
2023/04/29 11:09:26;;;;;;;;;12.00;12.00;;;;;15.78;47.25;102069.88;5009712;28;9638;-67
2023/04/29 11:12:04;;;;;;;;;14.00;9.50;;;;;15.65;47.83;102069.78;5007081;28;9732;-68
2023/04/29 11:14:37;;;;;;;;;11.00;11.00;;;;;15.62;47.96;102078.28;4992584;28;9595;-68
2023/04/29 11:17:08;;;;;;;;;10.75;9.25;;;;;15.65;47.86;102075.22;5001207;28;10253;-68
2023/04/29 11:19:40;;;;;;;;;10.00;10.00;;;;;15.75;48.69;102070.28;5002257;28;9384;-69
2023/04/29 11:22:09;;;;;;;;;9.75;9.00;;;;;15.93;48.10;102071.66;5010050;28;9706;-68
2023/04/29 11:24:35;;;;;;;;;8.50;7.25;;;;;15.89;46.75;102071.22;5006202;28;9517;-68
2023/04/29 11:27:05;;;;;;;;;13.50;10.25;;;;;15.92;47.07;102076.25;5009684;28;9518;-69